Time;durP1;ratioP1;P1;durP2;ratioP2;P2;SDS_P1;SDS_P2;PMS_P1;PMS_P2;Temp;Humidity;BMP_temperature;BMP_pressure;BME280_temperature;BME280_humidity;BME280_pressure;Samples;Min_cycle;Max_cycle;Signal;HPM_P1;HPM_P2
2022/08/02 00:00:04;;;;;;;6.80;6.10;;;;;;;10.49;100.00;163307.06;5029706;28;20037;-62
2022/08/02 00:02:30;;;;;;;7.45;5.22;;;;;;;10.50;100.00;163308.41;5030634;28;20026;-62
2022/08/02 00:04:55;;;;;;;9.85;6.88;;;;;;;10.48;100.00;163305.69;5029948;28;20056;-62
2022/08/02 00:07:20;;;;;;;4.88;4.43;;;;;;;10.51;100.00;163311.09;5030130;28;20041;-62
2022/08/02 00:09:46;;;;;;;10.43;7.72;;;;;;;10.53;100.00;162713.06;5017148;28;20042;-62
2022/08/02 00:12:11;;;;;;;6.95;5.95;;;;;;;10.57;100.00;160949.97;5011316;28;20026;-63
2022/08/02 00:14:37;;;;;;;6.40;5.43;;;;;;;10.58;100.00;159741.00;5010690;28;20034;-62
2022/08/02 00:17:03;;;;;;;8.82;6.90;;;;;;;10.59;100.00;159271.78;5030640;28;20022;-64
2022/08/02 00:19:29;;;;;;;7.38;4.35;;;;;;;10.56;100.00;160723.72;5029508;28;20515;-60
2022/08/02 00:21:54;;;;;;;5.68;5.18;;;;;;;10.54;100.00;161767.34;5029660;28;20033;-59
2022/08/02 00:24:19;;;;;;;7.97;7.03;;;;;;;10.58;100.00;160649.00;5029168;28;20025;-62
2022/08/02 00:26:45;;;;;;;10.60;7.03;;;;;;;10.57;100.00;159754.91;5030758;28;20501;-62
2022/08/02 00:29:10;;;;;;;18.27;8.40;;;;;;;10.59;100.00;158842.63;5029590;28;20100;-62
2022/08/02 00:31:35;;;;;;;6.47;5.88;;;;;;;10.55;100.00;157881.91;5030553;28;20079;-63
2022/08/02 00:34:01;;;;;;;17.92;8.60;;;;;;;10.60;100.00;157333.56;5031075;28;20025;-63
2022/08/02 00:36:26;;;;;;;9.82;7.35;;;;;;;10.59;100.00;157612.28;5012625;28;20042;-62
2022/08/02 00:38:52;;;;;;;7.95;6.20;;;;;;;10.57;100.00;159056.81;5010970;28;20025;-63
2022/08/02 00:41:20;;;;;;;7.93;6.90;;;;;;;10.54;100.00;159777.34;5009538;28;20517;-63
2022/08/02 00:43:47;;;;;;;9.57;6.90;;;;;;;10.54;100.00;159700.06;5011468;28;20433;-62
2022/08/02 00:46:15;;;;;;;7.22;6.50;;;;;;;10.56;100.00;158608.56;5022752;28;20038;-62
2022/08/02 00:48:40;;;;;;;6.90;6.30;;;;;;;10.59;100.00;156270.72;5030099;28;20546;-63
2022/08/02 00:51:06;;;;;;;7.47;6.63;;;;;;;10.64;100.00;154166.31;5013412;28;20128;-63
2022/08/02 00:53:31;;;;;;;8.73;7.10;;;;;;;10.63;100.00;153105.56;5010540;28;20459;-63
2022/08/02 00:55:57;;;;;;;8.90;6.20;;;;;;;10.60;100.00;154508.97;5029267;28;20037;-63
2022/08/02 00:58:22;;;;;;;13.88;8.45;;;;;;;10.55;100.00;156260.38;5030468;28;20461;-63
2022/08/02 01:00:47;;;;;;;8.73;6.55;;;;;;;10.54;100.00;158110.97;5029007;28;20037;-62
2022/08/02 01:03:13;;;;;;;11.48;9.35;;;;;;;10.52;100.00;159327.84;5022501;28;20033;-63
2022/08/02 01:05:38;;;;;;;8.98;6.95;;;;;;;10.51;100.00;159438.34;5009732;28;20038;-63
2022/08/02 01:08:03;;;;;;;11.77;7.18;;;;;;;10.46;100.00;159581.00;5013298;28;20018;-62
2022/08/02 01:10:29;;;;;;;11.68;7.55;;;;;;;10.42;100.00;160217.38;5032564;28;20470;-62
2022/08/02 01:12:54;;;;;;;7.25;6.53;;;;;;;10.41;100.00;161344.81;5034624;28;20033;-62
2022/08/02 01:15:20;;;;;;;8.40;6.70;;;;;;;10.32;100.00;162499.16;5030062;28;20045;-62
2022/08/02 01:17:59;;;;;;;8.18;6.40;;;;;;;10.32;100.00;163212.75;5020761;28;20033;-62
2022/08/02 01:21:00;;;;;;;9.68;6.00;;;;;;;10.27;100.00;163248.97;5032620;28;20091;-62
2022/08/02 01:23:44;;;;;;;13.55;7.10;;;;;;;10.18;100.00;163224.66;5033893;28;20029;-63
2022/08/02 01:26:38;;;;;;;8.27;7.10;;;;;;;10.16;100.00;163221.94;5032705;28;20060;-62
2022/08/02 01:29:25;;;;;;;12.68;6.88;;;;;;;10.14;100.00;163153.13;5034327;28;20042;-63
2022/08/02 01:32:06;;;;;;;7.68;6.93;;;;;;;10.11;100.00;162736.56;5017975;28;20509;-62
2022/08/02 01:34:55;;;;;;;9.77;7.40;;;;;;;10.06;100.00;162198.91;5029730;28;20840;-63
2022/08/02 01:37:34;;;;;;;10.65;7.60;;;;;;;10.06;100.00;161437.50;5033537;28;20041;-63
2022/08/02 01:40:07;;;;;;;8.98;6.72;;;;;;;10.04;100.00;160544.06;5032624;28;20059;-63
2022/08/02 01:42:33;;;;;;;9.07;5.55;;;;;;;10.01;100.00;160519.59;5034001;28;20068;-64
2022/08/02 01:45:01;;;;;;;7.25;6.15;;;;;;;9.89;100.00;160697.25;5028858;28;20068;-64
2022/08/02 01:47:30;;;;;;;8.80;6.47;;;;;;;9.95;100.00;159855.72;5013655;28;20025;-64
2022/08/02 01:49:57;;;;;;;7.13;6.40;;;;;;;9.94;100.00;158113.91;5012819;28;20045;-64
2022/08/02 01:52:28;;;;;;;8.95;6.07;;;;;;;9.87;100.00;157340.66;5013457;28;20054;-64
2022/08/02 01:55:05;;;;;;;9.55;6.90;;;;;;;9.84;100.00;158440.31;5012361;28;20133;-64
2022/08/02 01:57:44;;;;;;;6.57;5.30;;;;;;;9.78;100.00;160051.91;5013788;28;20091;-64
2022/08/02 02:00:10;;;;;;;10.25;4.70;;;;;;;9.71;100.00;161049.06;5012339;28;20489;-64
2022/08/02 02:02:40;;;;;;;4.70;4.30;;;;;;;9.66;100.00;161621.47;5033605;28;20037;-64
2022/08/02 02:05:10;;;;;;;5.68;4.38;;;;;;;9.62;100.00;162203.47;5031929;28;20536;-61
2022/08/02 02:07:36;;;;;;;4.93;4.53;;;;;;;9.62;100.00;162039.50;5033064;28;20388;-63
2022/08/02 02:10:04;;;;;;;8.02;6.05;;;;;;;9.60;100.00;161165.81;5018399;28;20168;-62
2022/08/02 02:12:32;;;;;;;5.82;4.68;;;;;;;9.63;100.00;159458.28;5025776;28;20116;-63
2022/08/02 02:14:58;;;;;;;6.50;5.18;;;;;;;9.66;100.00;157173.03;5014431;28;20568;-62
2022/08/02 02:17:26;;;;;;;3.75;3.45;;;;;;;9.66;100.00;156743.47;5012763;28;20030;-62
2022/08/02 02:19:53;;;;;;;6.03;4.10;;;;;;;9.53;100.00;159915.38;5011989;28;20061;-62
2022/08/02 02:22:18;;;;;;;5.15;4.28;;;;;;;9.49;100.00;162553.09;5012703;28;20021;-62
2022/08/02 02:24:44;;;;;;;5.65;4.80;;;;;;;9.47;100.00;162928.19;5011872;28;20497;-62
2022/08/02 02:27:11;;;;;;;8.10;4.80;;;;;;;9.48;100.00;162652.44;5013129;28;20053;-63
2022/08/02 02:29:43;;;;;;;9.70;6.72;;;;;;;9.48;100.00;162186.59;5011400;28;20444;-62
2022/08/02 02:32:09;;;;;;;10.02;7.40;;;;;;;9.50;100.00;160527.34;5018087;28;20091;-63
2022/08/02 02:34:39;;;;;;;12.25;7.18;;;;;;;9.54;100.00;157066.06;5031244;28;20452;-62
2022/08/02 02:37:11;;;;;;;9.85;8.00;;;;;;;9.58;100.00;153552.25;5032442;28;20116;-63
2022/08/02 02:39:38;;;;;;;7.40;6.25;;;;;;;9.61;100.00;150743.56;5028324;28;20037;-62
2022/08/02 02:42:09;;;;;;;6.60;5.70;;;;;;;9.58;100.00;149328.72;5032987;28;20076;-62
2022/08/02 02:44:37;;;;;;;4.95;4.47;;;;;;;9.52;100.00;150020.00;5024119;28;20453;-62
2022/08/02 02:47:04;;;;;;;6.30;4.88;;;;;;;9.49;100.00;151419.97;5032582;28;20500;-61
2022/08/02 02:49:33;;;;;;;15.02;5.97;;;;;;;9.40;100.00;152805.19;5030456;28;20110;-61
2022/08/02 02:51:59;;;;;;;7.43;6.72;;;;;;;9.47;100.00;153526.94;5030196;28;20021;-61
2022/08/02 02:54:26;;;;;;;6.70;5.30;;;;;;;9.46;100.00;153524.41;5030894;28;20563;-62
2022/08/02 02:56:53;;;;;;;6.95;6.32;;;;;;;9.48;100.00;152825.38;5032359;28;20037;-61
2022/08/02 02:59:18;;;;;;;13.85;8.05;;;;;;;9.53;100.00;151078.06;5030449;28;20033;-62
2022/08/02 03:01:44;;;;;;;9.60;8.63;;;;;;;9.61;100.00;147929.19;5026588;28;20072;-62
2022/08/02 03:04:10;;;;;;;10.90;6.43;;;;;;;9.61;100.00;145820.81;5011419;28;20164;-61
2022/08/02 03:06:36;;;;;;;7.65;5.25;;;;;;;9.61;100.00;145116.69;5029807;28;20022;-62
2022/08/02 03:09:03;;;;;;;6.40;5.75;;;;;;;9.56;100.00;146159.13;5032599;28;20033;-62
2022/08/02 03:11:29;;;;;;;5.93;5.25;;;;;;;9.50;100.00;148256.41;5030591;28;20041;-63
2022/08/02 03:13:57;;;;;;;7.30;6.60;;;;;;;9.49;100.00;149309.03;5031212;28;20025;-62
2022/08/02 03:16:23;;;;;;;8.38;6.30;;;;;;;9.49;100.00;149660.78;5030390;28;20063;-63
2022/08/02 03:18:48;;;;;;;9.35;6.45;;;;;;;9.50;100.00;149311.50;5028989;28;20473;-61
2022/08/02 03:21:13;;;;;;;5.07;4.47;;;;;;;9.45;100.00;150354.44;5010444;28;20096;-62
2022/08/02 03:23:40;;;;;;;9.43;6.30;;;;;;;9.41;100.00;153158.41;5015628;28;20025;-62
2022/08/02 03:26:07;;;;;;;8.93;7.07;;;;;;;9.37;100.00;154557.78;5030478;28;20075;-61
2022/08/02 03:28:33;;;;;;;9.68;7.03;;;;;;;9.38;100.00;153504.13;5031200;28;20528;-62
2022/08/02 03:30:59;;;;;;;8.68;7.38;;;;;;;9.43;100.00;151404.97;5029815;28;20049;-62
2022/08/02 03:33:25;;;;;;;13.80;6.63;;;;;;;9.43;100.00;149644.75;5031566;28;20591;-62
2022/08/02 03:35:53;;;;;;;12.80;9.18;;;;;;;9.44;100.00;148593.38;5029276;28;20045;-62
2022/08/02 03:38:21;;;;;;;9.50;7.10;;;;;;;9.46;100.00;147191.91;5031478;28;20588;-62
2022/08/02 03:40:47;;;;;;;11.07;7.32;;;;;;;9.45;100.00;146135.00;5030398;28;20386;-61
2022/08/02 03:43:14;;;;;;;14.02;7.20;;;;;;;9.44;100.00;145781.16;5030300;28;20017;-60
2022/08/02 03:45:43;;;;;;;10.93;7.57;;;;;;;9.43;100.00;145778.75;5010935;28;20565;-61
2022/08/02 03:48:10;;;;;;;10.48;8.55;;;;;;;9.42;100.00;145424.97;5025379;28;20029;-60
2022/08/02 03:50:36;;;;;;;14.45;7.55;;;;;;;9.41;100.00;145422.59;5028669;28;20412;-61
2022/08/02 03:53:02;;;;;;;10.98;9.52;;;;;;;9.41;100.00;145421.38;5031729;28;20025;-62
2022/08/02 03:55:27;;;;;;;10.32;7.60;;;;;;;9.37;100.00;145764.34;5029762;28;20455;-62
2022/08/02 03:57:53;;;;;;;8.45;7.53;;;;;;;9.36;100.00;146464.72;5030942;28;20481;-61
2022/08/02 04:00:20;;;;;;;10.32;6.88;;;;;;;9.33;100.00;147160.34;5019481;28;20564;-62
2022/08/02 04:02:46;;;;;;;8.82;7.28;;;;;;;9.32;100.00;147860.88;5012765;28;20088;-61
2022/08/02 04:05:12;;;;;;;8.85;8.05;;;;;;;9.25;100.00;147493.56;5020331;28;20065;-62
2022/08/02 04:07:37;;;;;;;14.90;8.90;;;;;;;9.35;100.00;146462.28;5031197;28;20065;-62
2022/08/02 04:10:04;;;;;;;14.70;9.65;;;;;;;9.42;100.00;144019.75;5028858;28;20080;-61
2022/08/02 04:12:29;;;;;;;15.32;10.90;;;;;;;9.50;100.00;141229.34;5025577;28;20040;-60
2022/08/02 04:14:55;;;;;;;8.88;7.97;;;;;;;9.57;100.00;138435.56;5021606;28;20041;-60
2022/08/02 04:17:22;;;;;;;9.68;8.77;;;;;;;9.51;100.00;137722.56;5013723;28;20026;-60
2022/08/02 04:19:53;;;;;;;14.43;10.20;;;;;;;9.55;100.00;138431.00;5011838;28;20041;-60
2022/08/02 04:22:24;;;;;;;10.98;8.20;;;;;;;9.51;100.00;139827.66;5011836;28;20026;-60
2022/08/02 04:24:51;;;;;;;8.70;7.38;;;;;;;9.51;100.00;141231.69;5009860;28;20498;-60
2022/08/02 04:27:18;;;;;;;9.32;8.43;;;;;;;9.48;100.00;141926.88;5010835;28;20048;-60
2022/08/02 04:29:45;;;;;;;10.70;8.50;;;;;;;9.53;100.00;141937.41;5009946;28;20037;-58
2022/08/02 04:32:12;;;;;;;13.15;10.38;;;;;;;9.56;100.00;140187.88;5011160;28;20022;-59
2022/08/02 04:34:37;;;;;;;16.13;8.93;;;;;;;9.67;100.00;138809.25;5009771;28;20034;-57
2022/08/02 04:37:03;;;;;;;10.38;8.65;;;;;;;9.72;100.00;138118.75;5025468;28;20026;-59
2022/08/02 04:39:28;;;;;;;10.63;8.40;;;;;;;9.77;100.00;138481.09;5029129;28;20068;-58
2022/08/02 04:41:53;;;;;;;16.00;10.43;;;;;;;9.81;100.00;138490.22;5031869;28;20076;-58
2022/08/02 04:44:19;;;;;;;15.80;10.52;;;;;;;9.94;100.00;137816.63;5031653;28;20135;-58
2022/08/02 04:46:44;;;;;;;9.88;8.88;;;;;;;10.03;100.00;136430.75;5034653;28;20025;-59
2022/08/02 04:49:10;;;;;;;15.02;10.57;;;;;;;10.12;100.00;133995.81;5013475;28;20087;-61
2022/08/02 04:51:37;;;;;;;13.50;10.10;;;;;;;10.22;100.00;131560.50;5018476;28;20026;-60
2022/08/02 04:54:03;;;;;;;17.88;10.18;;;;;;;10.34;100.00;129132.22;5027838;28;20378;-61
2022/08/02 04:56:29;;;;;;;12.40;9.73;;;;;;;10.44;100.00;127751.47;5020964;28;20040;-61
2022/08/02 04:58:54;;;;;;;16.08;10.48;;;;;;;10.53;100.00;126366.56;5025033;28;20022;-60
2022/08/02 05:01:19;;;;;;;12.43;10.52;;;;;;;10.62;100.00;125335.09;5021536;28;20111;-60
2022/08/02 05:03:45;;;;;;;13.00;9.55;;;;;;;10.72;100.00;123952.31;5019824;28;20029;-61
2022/08/02 05:06:10;;;;;;;17.98;9.55;;;;;;;10.79;100.00;123265.97;5012963;28;20049;-61
2022/08/02 05:08:35;;;;;;;20.95;11.75;;;;;;;10.84;100.00;122925.78;5020931;28;20029;-60
2022/08/02 05:11:01;;;;;;;14.48;9.07;;;;;;;10.90;100.00;123287.16;5021429;28;20052;-60
2022/08/02 05:13:26;;;;;;;13.23;11.52;;;;;;;10.94;100.00;124347.38;5023650;28;20037;-60
2022/08/02 05:15:51;;;;;;;33.78;12.57;;;;;;;11.00;100.00;124709.03;5023901;28;20041;-61
2022/08/02 05:18:17;;;;;;;12.85;9.65;;;;;;;11.08;100.00;122622.72;5023094;28;20033;-61
2022/08/02 05:20:43;;;;;;;20.38;10.80;;;;;;;11.25;100.00;120552.69;5020706;28;20493;-61
2022/08/02 05:23:08;;;;;;;14.10;10.18;;;;;;;11.38;100.00;118126.63;5022984;28;20030;-61
2022/08/02 05:25:33;;;;;;;17.27;10.27;;;;;;;11.49;100.00;116746.34;5023298;28;20404;-62
2022/08/02 05:27:59;;;;;;;19.67;13.60;;;;;;;11.61;100.00;115017.91;5023228;28;20033;-61
2022/08/02 05:30:24;;;;;;;18.95;10.60;;;;;;;11.74;100.00;113642.28;5023609;28;20099;-61
2022/08/02 05:32:52;;;;;;;17.38;10.40;;;;;;;11.90;100.00;112270.16;5023007;28;20013;-61
2022/08/02 05:35:20;;;;;;;15.18;12.40;;;;;;;12.05;100.00;110897.84;5022821;28;20448;-60
2022/08/02 05:37:47;;;;;;;17.58;10.70;;;;;;;12.25;100.00;109531.53;5024415;28;20022;-61
2022/08/02 05:40:13;;;;;;;13.82;11.10;;;;;;;12.48;100.00;108521.75;5022147;28;20045;-60
2022/08/02 05:42:39;;;;;;;17.48;10.50;;;;;;;12.64;100.00;108199.16;5022605;28;20036;-60
2022/08/02 05:45:05;;;;;;;12.02;9.73;;;;;;;12.77;100.00;108921.34;5020914;28;20050;-60
2022/08/02 05:47:30;;;;;;;13.40;8.75;;;;;;;12.90;100.00;110695.72;5019818;28;20554;-60
2022/08/02 05:49:56;;;;;;;12.38;9.30;;;;;;;13.06;100.00;112825.84;5020760;28;20034;-60
2022/08/02 05:52:25;;;;;;;10.82;8.07;;;;;;;13.23;100.00;116715.78;5022818;28;20049;-60
2022/08/02 05:55:07;;;;;;;15.43;8.52;;;;;;;13.44;100.00;119213.69;5021600;28;20059;-59
2022/08/02 05:58:08;;;;;;;14.15;7.72;;;;;;;13.61;100.00;123818.44;5022857;28;20038;-60
2022/08/02 06:00:35;;;;;;;13.90;8.13;;;;;;;13.80;100.00;130547.78;5000768;28;20519;-60
2022/08/02 06:03:23;;;;;;;10.30;8.00;;;;;;;14.00;100.00;138708.59;5021419;28;20375;-65
2022/08/02 06:06:14;;;;;;;18.42;7.50;;;;;;;14.23;100.00;147960.78;5020617;28;20041;-63
2022/08/02 06:08:47;;;;;;;11.27;7.00;;;;;;;14.40;100.00;158853.97;5017119;28;20050;-59
2022/08/02 06:11:19;;;;;;;10.05;7.32;;;;;;;14.49;100.00;164354.44;5012202;28;20493;-59
2022/08/02 06:13:45;;;;;;;12.95;6.90;;;;;;;14.74;100.00;164419.47;5023791;28;20022;-59
2022/08/02 06:16:11;;;;;;;13.57;7.07;;;;;;;14.87;100.00;164453.31;5031780;28;20540;-58
2022/08/02 06:18:39;;;;;;;16.90;8.13;;;;;;;15.05;100.00;164500.66;5031779;28;20025;-59
2022/08/02 06:21:05;;;;;;;8.18;5.53;;;;;;;15.20;100.00;164541.28;5014526;28;20130;-59
2022/08/02 06:23:38;;;;;;;10.98;6.72;;;;;;;15.33;100.00;164575.13;5025581;28;20026;-58
2022/08/02 06:26:06;;;;;;;9.38;6.38;;;;;;;15.46;100.00;164608.94;5029438;28;20042;-60
2022/08/02 06:28:34;;;;;;;16.10;6.73;;;;;;;15.65;100.00;164657.69;5031920;28;20099;-58
2022/08/02 06:31:00;;;;;;;10.43;7.43;;;;;;;15.84;100.00;164709.19;5031728;28;20464;-59
2022/08/02 06:33:25;;;;;;;8.93;5.72;;;;;;;16.04;100.00;164760.66;5032533;28;20037;-59
2022/08/02 06:35:58;;;;;;;11.65;6.47;;;;;;;16.31;100.00;164831.06;5020939;28;20046;-58
2022/08/02 06:38:26;;;;;;;8.32;6.80;;;;;;;16.54;100.00;164892.00;5012962;28;20398;-59
2022/08/02 06:41:01;;;;;;;9.23;7.07;;;;;;;16.70;100.00;164934.03;5024503;28;20045;-59
2022/08/02 06:43:51;;;;;;;13.77;5.90;;;;;;;16.92;100.00;164990.94;5012819;28;20477;-59
2022/08/02 06:46:16;;;;;;;13.20;7.10;;;;;;;17.15;100.00;165050.59;5010792;28;20042;-59
2022/08/02 06:48:42;;;;;;;9.75;8.00;;;;;;;17.33;100.00;165099.34;5013481;28;20025;-59
2022/08/02 06:51:07;;;;;;;11.23;5.90;;;;;;;17.65;100.00;165182.06;5019130;28;20045;-59
2022/08/02 06:53:32;;;;;;;11.05;5.05;;;;;;;18.07;100.00;165294.59;5015490;28;20034;-59
2022/08/02 06:55:58;;;;;;;8.55;6.13;;;;;;;18.49;100.00;165404.44;5025585;28;20562;-59
2022/08/02 06:58:23;;;;;;;18.08;6.80;;;;;;;18.96;100.00;165527.88;5032128;28;20109;-59
2022/08/02 07:00:49;;;;;;;20.42;7.35;;;;;;;-146.58;100.00;69501.63;5025982;28;20489;-59
2022/08/02 07:03:14;;;;;;;6.20;5.05;;;;;;;19.75;100.00;165735.47;5013970;28;20061;-59
2022/08/02 07:05:40;;;;;;;9.80;5.07;;;;;;;19.92;100.00;165780.28;5010249;28;20088;-59
2022/08/02 07:08:06;;;;;;;15.52;7.30;;;;;;;19.99;100.00;165796.59;5021591;28;20034;-59
2022/08/02 07:10:32;;;;;;;14.25;6.03;;;;;;;20.01;100.00;165802.00;5020223;28;20042;-59
2022/08/02 07:12:57;;;;;;;12.77;7.03;;;;;;;19.94;100.00;165785.72;5012351;28;20500;-59
2022/08/02 07:15:22;;;;;;;13.60;6.07;;;;;;;19.82;100.00;165753.13;5010470;28;20097;-59
2022/08/02 07:17:48;;;;;;;14.90;6.93;;;;;;;19.91;100.00;165777.63;5016558;28;20018;-59
2022/08/02 07:20:13;;;;;;;10.43;6.38;;;;;;;20.06;100.00;165815.59;5027532;28;20037;-58
2022/08/02 07:22:39;;;;;;;12.52;6.15;;;;;;;20.25;100.00;165867.16;5015446;28;20080;-58
2022/08/02 07:25:05;;;;;;;14.98;6.47;;;;;;;20.47;100.00;165924.16;5027046;28;20042;-58
2022/08/02 07:27:31;;;;;;;15.32;7.00;;;;;;;20.65;100.00;165970.34;5019043;28;20052;-58
2022/08/02 07:29:56;;;;;;;14.57;7.55;;;;;;;20.74;100.00;165994.78;5014936;28;20041;-59
2022/08/02 07:32:24;;;;;;;14.15;6.38;;;;;;;20.82;100.00;166015.19;5016418;28;20037;-59
2022/08/02 07:34:50;;;;;;;15.88;6.35;;;;;;;20.88;100.00;166032.84;5010634;28;20034;-59
2022/08/02 07:37:16;;;;;;;13.13;6.00;;;;;;;20.90;100.00;166038.25;5015738;28;20017;-59
2022/08/02 07:39:41;;;;;;;8.75;5.68;;;;;;;20.96;100.00;166051.88;5030097;28;20040;-59
2022/08/02 07:42:06;;;;;;;11.10;7.13;;;;;;;21.05;100.00;166076.28;5031663;28;20711;-58
2022/08/02 07:44:33;;;;;;;11.68;6.00;;;;;;;21.10;100.00;166088.50;5029950;28;20041;-59
2022/08/02 07:47:03;;;;;;;17.92;6.70;;;;;;;21.11;100.00;166091.22;5026973;28;20396;-59
2022/08/02 07:49:29;;;;;;;12.48;6.63;;;;;;;21.12;100.00;166093.94;5010403;28;20045;-58
2022/08/02 07:51:55;;;;;;;10.90;6.70;;;;;;;21.04;100.00;166074.94;5011815;28;20477;-59
2022/08/02 07:54:20;;;;;;;11.48;6.80;;;;;;;21.33;100.00;166149.63;5016802;28;20045;-60
2022/08/02 07:56:46;;;;;;;9.85;6.28;;;;;;;21.38;100.00;166163.19;5030924;28;20079;-58
2022/08/02 07:59:11;;;;;;;12.85;6.50;;;;;;;21.39;100.00;166165.94;5029856;28;20029;-59
2022/08/02 08:01:36;;;;;;;12.05;5.70;;;;;;;21.49;100.00;166193.06;5026960;28;20026;-59
2022/08/02 08:04:03;;;;;;;11.52;6.45;;;;;;;21.72;100.00;166252.88;5025145;28;20047;-59
2022/08/02 08:06:29;;;;;;;15.48;7.00;;;;;;;22.09;100.00;166349.34;5029217;28;20041;-58
2022/08/02 08:08:55;;;;;;;15.07;6.45;;;;;;;22.28;100.00;166399.63;5028458;28;20032;-59
2022/08/02 08:11:20;;;;;;;16.83;7.47;;;;;;;22.49;100.00;166456.75;5011905;28;20034;-59
2022/08/02 08:13:45;;;;;;;12.90;5.43;;;;;;;22.69;100.00;166508.34;5011571;28;20370;-59
2022/08/02 08:16:11;;;;;;;12.60;5.07;;;;;;;23.02;100.00;166595.38;5009563;28;20076;-59
2022/08/02 08:18:37;;;;;;;9.82;4.97;;;;;;;23.33;100.00;166675.59;5027829;28;20030;-59
2022/08/02 08:21:02;;;;;;;5.35;3.95;;;;;;;23.84;100.00;166810.22;5028197;28;20037;-59
2022/08/02 08:23:27;;;;;;;12.70;5.00;;;;;;;23.92;100.00;166833.31;5011253;28;20029;-58
2022/08/02 08:25:53;;;;;;;10.13;5.60;;;;;;;24.30;100.00;166932.66;5027145;28;20398;-59
2022/08/02 08:28:18;;;;;;;5.95;4.15;;;;;;;24.49;100.00;166981.59;5030561;28;20045;-59
2022/08/02 08:30:44;;;;;;;9.00;3.60;;;;;;;24.67;100.00;167030.66;5029932;28;20041;-59
2022/08/02 08:33:09;;;;;;;7.25;2.90;;;;;;;24.69;100.00;167036.06;5030576;28;20481;-59
2022/08/02 08:35:34;;;;;;;8.63;3.40;;;;;;;24.76;100.00;167053.75;5013369;28;20041;-58
2022/08/02 08:38:00;;;;;;;7.47;3.40;;;;;;;24.90;100.00;167090.53;5011068;28;20022;-58
2022/08/02 08:40:25;;;;;;;11.60;4.30;;;;;;;24.76;100.00;167053.75;5009394;28;20525;-59
2022/08/02 08:42:50;;;;;;;8.73;3.40;;;;;;;24.70;100.00;167037.44;5011102;28;20041;-59
2022/08/02 08:45:16;;;;;;;5.72;3.92;;;;;;;24.68;100.00;167033.38;5009513;28;20057;-59
2022/08/02 08:47:42;;;;;;;3.75;2.60;;;;;;;24.62;100.00;167016.97;5020239;28;20112;-59
2022/08/02 08:50:18;;;;;;;7.00;3.00;;;;;;;24.54;100.00;166995.19;5020015;28;20120;-59
2022/08/02 08:53:04;;;;;;;5.70;3.38;;;;;;;24.64;100.00;167022.44;5011016;28;20545;-59
2022/08/02 08:55:31;;;;;;;6.45;3.53;;;;;;;24.81;100.00;167066.00;5025717;28;20132;-59
2022/08/02 08:57:58;;;;;;;5.97;2.92;;;;;;;24.88;100.00;167085.06;5029810;28;20032;-58
2022/08/02 09:00:24;;;;;;;5.32;3.28;;;;;;;25.12;100.00;167147.66;5029205;28;20444;-59
2022/08/02 09:02:49;;;;;;;6.28;3.50;;;;;;;25.54;100.00;167257.94;5030485;28;20083;-59
2022/08/02 09:05:15;;;;;;;7.65;3.22;;;;;;;25.77;100.00;167319.16;5021551;28;20044;-59
2022/08/02 09:07:43;;;;;;;5.32;2.85;;;;;;;25.89;100.00;167350.47;5025205;28;20121;-59
2022/08/02 09:10:39;;;;;;;6.88;3.92;;;;;;;26.21;100.00;167436.25;5013683;28;20558;-59
2022/08/02 09:13:23;;;;;;;5.18;3.25;;;;;;;26.51;100.00;167513.88;5026658;28;20512;-60
2022/08/02 09:15:59;;;;;;;7.68;3.00;;;;;;;26.56;100.00;167528.81;5009294;28;20038;-59
2022/08/02 09:18:36;;;;;;;6.82;3.33;;;;;;;26.59;100.00;167537.00;5025154;28;20022;-59
2022/08/02 09:21:07;;;;;;;7.65;3.05;;;;;;;26.60;100.00;167539.75;5029294;28;20052;-59
2022/08/02 09:23:34;;;;;;;5.43;2.78;;;;;;;26.90;100.00;167618.78;5014275;28;20493;-59
2022/08/02 09:26:06;;;;;;;17.05;3.45;;;;;;;27.16;100.00;167686.81;5009353;28;20092;-59
2022/08/02 09:28:32;;;;;;;6.00;2.90;;;;;;;27.10;100.00;167670.50;5016405;28;20041;-59
2022/08/02 09:31:04;;;;;;;3.72;2.63;;;;;;;27.08;100.00;167665.03;5016643;28;20500;-59
2022/08/02 09:33:29;;;;;;;6.63;2.80;;;;;;;26.97;100.00;167636.44;5028930;28;20036;-59
2022/08/02 09:36:14;;;;;;;3.83;2.70;;;;;;;26.99;100.00;167640.56;5028800;28;20493;-59
2022/08/02 09:38:51;;;;;;;6.07;3.67;;;;;;;27.41;100.00;167752.22;5029150;28;20022;-60
2022/08/02 09:41:25;;;;;;;6.30;4.43;;;;;;;27.50;100.00;167776.81;5027146;28;20095;-60
2022/08/02 09:43:52;;;;;;;4.20;3.80;;;;;;;26.84;100.00;167602.44;5034045;28;20094;-59
2022/08/02 09:46:20;;;;;;;5.33;4.27;;;;;;;26.32;100.00;167463.50;5031688;28;20103;-59
2022/08/02 09:48:54;;;;;;;5.93;3.55;;;;;;;26.21;100.00;167436.25;5033366;28;20463;-60
2022/08/02 09:51:22;;;;;;;4.20;3.90;;;;;;;26.26;100.00;167449.84;5031890;28;20034;-59
2022/08/02 09:53:59;;;;;;;5.63;3.75;;;;;;;26.17;100.00;167424.00;5015607;28;20063;-59
2022/08/02 09:56:26;;;;;;;4.70;4.30;;;;;;;26.54;100.00;167523.41;5009014;28;20072;-59
2022/08/02 09:58:54;;;;;;;31.23;6.95;;;;;;;26.86;100.00;167607.84;5024434;28;20061;-59
2022/08/02 10:01:30;;;;;;;7.80;4.53;;;;;;;26.86;100.00;167606.50;5030010;28;20091;-59
2022/08/02 10:03:58;;;;;;;6.55;3.83;;;;;;;27.03;100.00;167651.44;5012626;28;20026;-60
2022/08/02 10:06:24;;;;;;;5.43;4.18;;;;;;;26.99;100.00;167641.91;5013836;28;20619;-60
2022/08/02 10:08:52;;;;;;;10.90;4.75;;;;;;;27.02;100.00;167648.69;5016022;28;20038;-60
2022/08/02 10:11:21;;;;;;;5.85;4.70;;;;;;;27.34;100.00;167733.16;5010506;28;20048;-59
2022/08/02 10:13:47;;;;;;;10.10;5.00;;;;;;;27.31;100.00;167726.34;5013322;28;20092;-59
2022/08/02 10:16:15;;;;;;;6.43;5.55;;;;;;;27.16;100.00;167686.81;5011154;28;20405;-60
2022/08/02 10:18:41;;;;;;;7.05;5.32;;;;;;;26.86;100.00;167606.50;5011930;28;20096;-59
2022/08/02 10:21:12;;;;;;;10.73;5.20;;;;;;;26.91;100.00;167621.50;5027626;28;20530;-59
2022/08/02 10:23:39;;;;;;;6.03;3.97;;;;;;;27.05;100.00;167656.91;5031481;28;20021;-59
2022/08/02 10:26:06;;;;;;;6.63;4.28;;;;;;;26.94;100.00;167626.91;5018473;28;20033;-59
2022/08/02 10:28:32;;;;;;;10.23;5.03;;;;;;;26.91;100.00;167621.50;5021047;28;20072;-59
2022/08/02 10:31:04;;;;;;;4.97;2.72;;;;;;;27.31;100.00;167724.97;5017917;28;20073;-59
2022/08/02 10:33:32;;;;;;;4.32;3.30;;;;;;;27.92;100.00;167885.75;5019174;28;20025;-59
2022/08/02 10:35:59;;;;;;;8.65;3.95;;;;;;;28.34;100.00;167997.50;5030975;28;20152;-60
2022/08/02 10:38:26;;;;;;;9.90;4.00;;;;;;;28.23;100.00;167968.91;5031353;28;20477;-59
2022/08/02 10:40:53;;;;;;;5.72;3.30;;;;;;;28.52;100.00;168043.84;5029054;28;20052;-60
2022/08/02 10:43:30;;;;;;;9.45;2.92;;;;;;;28.38;100.00;168008.44;5022385;28;20489;-59
2022/08/02 10:46:19;;;;;;;15.15;4.00;;;;;;;28.54;100.00;168049.31;5010675;28;20072;-60
2022/08/02 10:49:07;;;;;;;7.68;4.78;;;;;;;28.08;100.00;167929.41;5011565;28;20092;-59
2022/08/02 10:51:50;;;;;;;6.82;3.50;;;;;;;28.00;100.00;167907.56;5011436;28;20648;-60
2022/08/02 10:54:25;;;;;;;7.93;3.88;;;;;;;28.00;100.00;167908.91;5023033;28;20022;-60
2022/08/02 10:56:53;;;;;;;3.92;3.25;;;;;;;27.76;100.00;167843.53;5011393;28;20057;-60
2022/08/02 10:59:34;;;;;;;4.65;3.22;;;;;;;27.73;100.00;167835.34;5024944;28;20052;-59
2022/08/02 11:02:01;;;;;;;7.00;3.38;;;;;;;28.01;100.00;167911.63;5012479;28;20034;-60
2022/08/02 11:04:35;;;;;;;7.63;2.80;;;;;;;27.88;100.00;167874.88;5015199;28;20037;-59
2022/08/02 11:07:13;;;;;;;4.93;2.90;;;;;;;28.15;100.00;167948.47;5030229;28;20029;-60
2022/08/02 11:09:39;;;;;;;6.00;3.10;;;;;;;27.73;100.00;167836.75;5029711;28;20041;-60
2022/08/02 11:12:12;;;;;;;7.57;3.72;;;;;;;27.69;100.00;167825.81;5031217;28;20036;-60
2022/08/02 11:14:43;;;;;;;4.40;2.78;;;;;;;27.83;100.00;167863.94;5018716;28;20070;-59
2022/08/02 11:17:16;;;;;;;4.78;2.75;;;;;;;27.61;100.00;167805.41;5023675;28;20053;-59
2022/08/02 11:20:07;;;;;;;6.50;2.50;;;;;;;27.42;100.00;167753.63;5009346;28;20041;-59